createdAt,value
2017-08-31T00:01:43.280Z,18.00
2017-08-31T00:04:11.003Z,18.00
2017-08-31T00:06:38.887Z,17.90
2017-08-31T00:09:06.662Z,17.90
2017-08-31T00:11:34.389Z,17.90
2017-08-31T00:14:02.148Z,17.90
2017-08-31T00:16:29.903Z,17.90
2017-08-31T00:18:57.686Z,17.90
2017-08-31T00:21:25.411Z,17.90
2017-08-31T00:23:53.152Z,17.80
2017-08-31T00:26:20.912Z,17.80
2017-08-31T00:28:49.516Z,17.90
2017-08-31T00:31:17.316Z,17.90
2017-08-31T00:33:45.041Z,17.80
2017-08-31T00:36:12.817Z,17.80
2017-08-31T00:38:40.566Z,17.80
2017-08-31T00:41:08.291Z,17.80
2017-08-31T00:43:36.077Z,17.70
2017-08-31T00:46:03.812Z,17.70
2017-08-31T00:48:31.548Z,17.60
2017-08-31T00:50:59.363Z,17.60
2017-08-31T00:53:27.097Z,17.50
2017-08-31T00:55:54.905Z,17.50
2017-08-31T00:58:22.667Z,17.40
2017-08-31T01:00:50.407Z,17.40
2017-08-31T01:03:18.160Z,17.30
2017-08-31T01:05:45.881Z,17.30
2017-08-31T01:08:13.680Z,17.30
2017-08-31T01:10:41.416Z,17.30
2017-08-31T01:13:09.156Z,17.30
2017-08-31T01:15:36.909Z,17.30
2017-08-31T01:18:04.639Z,17.30
2017-08-31T01:20:32.436Z,17.20
2017-08-31T01:23:00.190Z,17.20
2017-08-31T01:25:27.935Z,17.10
2017-08-31T01:27:55.725Z,17.10
2017-08-31T01:30:23.482Z,17.10
2017-08-31T01:32:51.297Z,17.00
2017-08-31T01:35:19.097Z,16.90
2017-08-31T01:37:46.840Z,16.90
2017-08-31T01:40:14.609Z,16.80
2017-08-31T01:42:42.359Z,16.70
2017-08-31T01:45:10.535Z,16.70
2017-08-31T01:47:46.176Z,16.70
2017-08-31T01:50:13.975Z,16.70
2017-08-31T01:52:41.712Z,16.60
2017-08-31T01:55:09.486Z,16.50
2017-08-31T01:57:37.256Z,16.50
2017-08-31T02:00:05.023Z,16.50
2017-08-31T02:02:32.802Z,16.50
2017-08-31T02:05:00.533Z,16.50
2017-08-31T02:07:28.265Z,16.40
2017-08-31T02:09:56.023Z,16.40
2017-08-31T02:12:23.748Z,16.40
2017-08-31T02:14:51.531Z,16.40
2017-08-31T02:17:19.285Z,16.30
2017-08-31T02:19:47.012Z,16.30
2017-08-31T02:22:14.787Z,16.30
2017-08-31T02:24:42.539Z,16.20
2017-08-31T02:27:10.324Z,16.20
2017-08-31T02:29:38.096Z,16.20
2017-08-31T02:32:05.834Z,16.20
2017-08-31T02:34:33.597Z,16.20
2017-08-31T02:37:01.332Z,16.20
2017-08-31T02:39:29.124Z,16.20
2017-08-31T02:41:56.851Z,16.30
2017-08-31T02:44:24.572Z,16.30
2017-08-31T02:46:52.347Z,16.30
2017-08-31T02:49:20.072Z,16.30
2017-08-31T02:51:47.852Z,16.20
2017-08-31T02:54:15.583Z,16.20
2017-08-31T02:56:43.305Z,16.20
2017-08-31T02:59:11.062Z,16.20
2017-08-31T03:01:38.780Z,16.20
2017-08-31T03:04:06.561Z,16.10
2017-08-31T03:06:34.287Z,16.10
2017-08-31T03:09:02.008Z,16.10
2017-08-31T03:11:29.754Z,16.00
2017-08-31T03:13:57.479Z,15.90
2017-08-31T03:16:25.267Z,16.00
2017-08-31T03:18:52.997Z,16.00
2017-08-31T03:21:20.772Z,16.00
2017-08-31T03:23:48.525Z,16.10
2017-08-31T03:26:16.265Z,16.00
2017-08-31T03:28:44.057Z,16.10
2017-08-31T03:31:11.788Z,16.10
2017-08-31T03:33:39.516Z,16.20
2017-08-31T03:36:07.282Z,16.20
2017-08-31T03:38:35.012Z,16.30
2017-08-31T03:41:02.803Z,16.30
2017-08-31T03:43:30.540Z,16.50
2017-08-31T03:45:58.270Z,16.40
2017-08-31T03:48:26.028Z,16.40
2017-08-31T03:50:53.752Z,16.50
2017-08-31T03:53:21.576Z,16.50
2017-08-31T03:55:49.300Z,16.50
2017-08-31T03:58:17.024Z,16.60
2017-08-31T04:00:44.776Z,16.70
2017-08-31T04:03:12.504Z,16.70
2017-08-31T04:05:40.292Z,16.70
2017-08-31T04:08:08.019Z,16.70
2017-08-31T04:10:35.752Z,16.80
2017-08-31T04:13:03.511Z,16.90
2017-08-31T04:15:31.234Z,17.00
2017-08-31T04:17:59.013Z,17.10
2017-08-31T04:20:26.736Z,17.10
2017-08-31T04:22:54.464Z,17.20
2017-08-31T04:25:22.233Z,17.30
2017-08-31T04:27:49.971Z,17.40
2017-08-31T04:30:17.756Z,17.50
2017-08-31T04:32:45.490Z,17.70
2017-08-31T04:35:13.218Z,17.90
2017-08-31T04:37:40.972Z,17.90
2017-08-31T04:40:08.701Z,18.00
2017-08-31T04:42:36.491Z,18.20
2017-08-31T04:45:04.223Z,18.50
2017-08-31T04:47:31.944Z,18.70
2017-08-31T04:49:59.700Z,18.70
2017-08-31T04:52:27.433Z,18.90
2017-08-31T04:54:55.228Z,19.30
2017-08-31T04:57:22.957Z,19.50
2017-08-31T04:59:50.680Z,19.80
2017-08-31T05:02:18.438Z,20.10
2017-08-31T05:04:46.171Z,20.40
2017-08-31T05:07:13.956Z,20.40
2017-08-31T05:09:41.687Z,20.50
2017-08-31T05:12:09.417Z,21.00
2017-08-31T05:14:37.180Z,21.40
2017-08-31T05:17:04.908Z,21.50
2017-08-31T05:19:32.712Z,21.60
2017-08-31T05:22:00.448Z,21.80
2017-08-31T05:24:28.208Z,22.10
2017-08-31T05:26:55.996Z,22.30
2017-08-31T05:29:23.728Z,22.60
2017-08-31T05:31:51.521Z,23.00
2017-08-31T05:34:19.248Z,23.60
2017-08-31T05:36:46.979Z,24.40
2017-08-31T05:39:14.734Z,24.70
2017-08-31T05:41:42.616Z,25.80
2017-08-31T05:44:10.395Z,26.70
2017-08-31T05:46:38.132Z,27.10
2017-08-31T05:49:05.865Z,27.80
2017-08-31T05:51:33.623Z,28.80
2017-08-31T05:54:01.357Z,30.00
2017-08-31T05:56:29.164Z,30.90
2017-08-31T05:58:56.920Z,31.10
2017-08-31T06:01:24.668Z,32.00
2017-08-31T06:03:52.444Z,32.00
2017-08-31T06:06:20.183Z,31.90
2017-08-31T06:08:47.975Z,32.30
2017-08-31T06:11:15.720Z,32.70
2017-08-31T06:13:43.451Z,32.60
2017-08-31T06:16:11.210Z,32.30
2017-08-31T06:18:38.942Z,32.10
2017-08-31T06:21:06.756Z,32.30
2017-08-31T06:23:34.483Z,32.60
2017-08-31T06:26:02.229Z,33.10
2017-08-31T06:28:30.008Z,33.50
2017-08-31T06:30:57.757Z,33.60
2017-08-31T06:33:25.548Z,32.80
2017-08-31T06:35:53.291Z,32.80
2017-08-31T06:38:21.036Z,33.60
2017-08-31T06:40:48.799Z,32.30
2017-08-31T06:43:16.531Z,32.90
2017-08-31T06:45:44.316Z,33.80
2017-08-31T06:48:12.049Z,35.10
2017-08-31T06:50:39.779Z,35.80
2017-08-31T06:53:07.535Z,35.70
2017-08-31T06:55:35.268Z,35.70
2017-08-31T06:58:03.051Z,35.70
2017-08-31T07:00:30.782Z,35.50
2017-08-31T07:02:58.555Z,34.80
2017-08-31T07:05:26.322Z,34.30
2017-08-31T07:07:54.052Z,34.70
2017-08-31T07:10:21.803Z,34.40
2017-08-31T07:12:49.531Z,34.50
2017-08-31T07:15:17.325Z,34.80
2017-08-31T07:17:45.061Z,35.70
2017-08-31T07:20:12.793Z,35.20
2017-08-31T07:22:40.552Z,35.30
2017-08-31T07:25:08.276Z,35.60
2017-08-31T07:27:36.065Z,36.20
2017-08-31T07:30:03.821Z,36.60
2017-08-31T07:32:31.559Z,37.30
2017-08-31T07:34:59.319Z,38.70
2017-08-31T07:37:27.045Z,38.70
2017-08-31T07:39:54.827Z,38.80
2017-08-31T07:42:22.552Z,38.20
2017-08-31T07:44:50.277Z,39.40
2017-08-31T07:47:18.086Z,39.40
2017-08-31T07:49:45.815Z,39.90
2017-08-31T07:52:13.603Z,40.20
2017-08-31T07:54:41.338Z,41.00
2017-08-31T07:57:09.083Z,42.20
2017-08-31T07:59:36.831Z,41.40
2017-08-31T08:02:04.572Z,41.80
2017-08-31T08:04:32.347Z,41.80
2017-08-31T08:07:00.079Z,41.10
2017-08-31T08:09:27.832Z,41.00
2017-08-31T08:11:55.584Z,41.40
2017-08-31T08:14:23.308Z,41.90
2017-08-31T08:16:51.083Z,41.50
2017-08-31T08:19:18.808Z,41.90
2017-08-31T08:21:46.555Z,42.10
2017-08-31T08:24:14.306Z,42.00
2017-08-31T08:26:42.024Z,41.70
2017-08-31T08:29:09.811Z,42.30
2017-08-31T08:31:37.536Z,42.50
2017-08-31T08:34:05.272Z,43.00
2017-08-31T08:36:33.024Z,42.80
2017-08-31T08:39:00.740Z,42.40
2017-08-31T08:41:28.520Z,42.40
2017-08-31T08:43:56.248Z,43.00
2017-08-31T08:46:24.008Z,43.60
2017-08-31T08:48:51.762Z,42.50
2017-08-31T08:51:19.492Z,42.80
2017-08-31T08:53:47.271Z,42.90
2017-08-31T08:56:15.016Z,42.90
2017-08-31T08:58:42.739Z,43.30
2017-08-31T09:01:10.548Z,43.00
2017-08-31T09:03:38.308Z,42.80
2017-08-31T09:06:06.089Z,43.30
2017-08-31T09:08:33.806Z,43.50
2017-08-31T09:11:01.552Z,42.70
2017-08-31T09:13:29.307Z,42.80
2017-08-31T09:15:57.022Z,41.50
2017-08-31T09:18:24.831Z,41.90
2017-08-31T09:20:52.613Z,40.50
2017-08-31T09:23:20.344Z,38.40
2017-08-31T09:25:48.099Z,37.10
2017-08-31T09:28:15.858Z,36.20
2017-08-31T09:30:43.647Z,35.40
2017-08-31T09:33:11.384Z,35.10
2017-08-31T09:35:39.110Z,35.40
2017-08-31T09:38:06.872Z,35.90
2017-08-31T09:40:34.608Z,35.70
2017-08-31T09:43:02.391Z,35.40
2017-08-31T09:45:30.123Z,35.10
2017-08-31T09:47:57.856Z,34.20
2017-08-31T09:50:25.669Z,33.00
2017-08-31T09:52:53.400Z,32.80
2017-08-31T09:55:21.187Z,32.50
2017-08-31T09:57:48.917Z,32.60
2017-08-31T10:00:16.653Z,32.70
2017-08-31T10:02:44.415Z,33.00
2017-08-31T10:05:12.185Z,32.80
2017-08-31T10:07:39.980Z,32.80
2017-08-31T10:10:07.709Z,32.70
2017-08-31T10:12:35.448Z,32.60
2017-08-31T10:15:03.219Z,32.40
2017-08-31T10:17:30.968Z,32.40
2017-08-31T10:19:58.746Z,32.70
2017-08-31T10:22:26.471Z,33.20
2017-08-31T10:24:54.201Z,33.50
2017-08-31T10:27:22.021Z,33.40
2017-08-31T10:29:49.748Z,33.10
2017-08-31T10:32:17.553Z,33.10
2017-08-31T10:34:45.282Z,33.20
2017-08-31T10:37:13.016Z,32.90
2017-08-31T10:39:40.779Z,32.80
2017-08-31T10:42:08.508Z,32.90
2017-08-31T10:44:36.299Z,33.00
2017-08-31T10:47:04.030Z,33.20
2017-08-31T10:49:31.767Z,33.20
2017-08-31T10:51:59.519Z,33.20
2017-08-31T10:54:27.281Z,33.10
2017-08-31T10:56:55.232Z,33.00
2017-08-31T10:59:22.963Z,32.80
2017-08-31T11:01:50.701Z,32.70
2017-08-31T11:04:18.464Z,32.60
2017-08-31T11:06:46.217Z,32.50
2017-08-31T11:09:14.012Z,32.50
2017-08-31T11:11:41.752Z,32.60
2017-08-31T11:14:09.480Z,32.40
2017-08-31T11:16:37.244Z,32.50
2017-08-31T11:19:04.987Z,32.40
2017-08-31T11:21:32.768Z,32.40
2017-08-31T11:24:00.507Z,32.40
2017-08-31T11:26:28.283Z,32.40
2017-08-31T11:28:56.119Z,32.50
2017-08-31T11:31:23.846Z,32.40
2017-08-31T11:33:51.743Z,32.50
2017-08-31T11:36:19.429Z,32.60
2017-08-31T11:38:47.203Z,32.60
2017-08-31T11:41:14.967Z,32.60
2017-08-31T11:43:42.690Z,32.60
2017-08-31T11:46:10.477Z,32.80
2017-08-31T11:48:38.204Z,32.80
2017-08-31T11:51:05.927Z,32.80
2017-08-31T11:53:33.683Z,32.80
2017-08-31T11:56:01.424Z,32.70
2017-08-31T11:58:29.241Z,32.70
2017-08-31T12:00:56.983Z,32.70
2017-08-31T12:03:24.715Z,32.40
2017-08-31T12:05:52.471Z,32.30
2017-08-31T12:08:20.200Z,32.40
2017-08-31T12:10:47.960Z,32.50
2017-08-31T12:13:15.693Z,32.70
2017-08-31T12:15:43.482Z,32.80
2017-08-31T12:18:11.209Z,32.70
2017-08-31T12:20:38.936Z,32.60
2017-08-31T12:23:06.707Z,32.60
2017-08-31T12:25:34.463Z,32.70
2017-08-31T12:28:02.248Z,32.60
2017-08-31T12:30:29.979Z,32.50
2017-08-31T12:32:57.708Z,32.70
2017-08-31T12:35:25.464Z,32.80
2017-08-31T12:37:53.235Z,33.10
2017-08-31T12:40:21.020Z,33.50
2017-08-31T12:42:48.752Z,33.90
2017-08-31T12:45:16.504Z,34.20
2017-08-31T12:47:44.263Z,34.50
2017-08-31T12:50:11.995Z,34.60
2017-08-31T12:52:39.804Z,33.90
2017-08-31T12:55:07.531Z,33.70
2017-08-31T12:57:35.258Z,33.50
2017-08-31T13:00:03.019Z,33.50
2017-08-31T13:02:30.776Z,33.50
2017-08-31T13:04:58.565Z,33.50
2017-08-31T13:07:26.292Z,33.50
2017-08-31T13:09:54.024Z,33.20
2017-08-31T13:12:21.802Z,32.90
2017-08-31T13:14:49.533Z,32.60
2017-08-31T13:17:17.347Z,32.60
2017-08-31T13:19:45.080Z,32.50
2017-08-31T13:22:12.803Z,32.60
2017-08-31T13:24:40.571Z,32.70
2017-08-31T13:27:08.301Z,32.70
2017-08-31T13:29:36.373Z,32.80
2017-08-31T13:32:04.108Z,32.90
2017-08-31T13:34:31.839Z,33.00
2017-08-31T13:36:59.591Z,33.00
2017-08-31T13:39:27.321Z,33.00
2017-08-31T13:41:55.103Z,33.10
2017-08-31T13:44:22.828Z,33.20
2017-08-31T13:46:50.610Z,33.40
2017-08-31T13:49:18.376Z,33.30
2017-08-31T13:51:46.104Z,33.30
2017-08-31T13:54:13.899Z,33.60
2017-08-31T13:56:41.628Z,33.60
2017-08-31T13:59:09.356Z,33.70
2017-08-31T14:01:37.117Z,33.90
2017-08-31T14:04:04.852Z,34.00
2017-08-31T14:06:32.677Z,33.60
2017-08-31T14:09:00.404Z,33.50
2017-08-31T14:11:28.148Z,33.40
2017-08-31T14:13:55.913Z,33.20
2017-08-31T14:16:23.644Z,33.20
2017-08-31T14:18:51.432Z,33.10
2017-08-31T14:21:19.165Z,32.90
2017-08-31T14:23:46.895Z,32.90
2017-08-31T14:26:14.664Z,32.70
2017-08-31T14:28:42.396Z,32.70
2017-08-31T14:31:10.188Z,32.70
2017-08-31T14:33:37.933Z,32.90
2017-08-31T14:36:05.670Z,32.80
2017-08-31T14:38:33.423Z,32.70
2017-08-31T14:41:01.153Z,32.60
2017-08-31T14:43:28.941Z,32.50
2017-08-31T14:45:56.673Z,32.60
2017-08-31T14:48:24.406Z,32.70
2017-08-31T14:50:52.163Z,32.20
2017-08-31T14:53:19.905Z,32.00
2017-08-31T14:55:47.693Z,31.60
2017-08-31T14:58:15.424Z,31.50
2017-08-31T15:00:43.156Z,31.40
2017-08-31T15:03:10.929Z,31.40
2017-08-31T15:05:38.669Z,31.40
2017-08-31T15:08:06.457Z,31.00
2017-08-31T15:10:34.194Z,30.90
2017-08-31T15:13:01.928Z,30.70
2017-08-31T15:15:29.687Z,30.50
2017-08-31T15:17:57.420Z,30.40
2017-08-31T15:20:25.213Z,30.20
2017-08-31T15:22:52.959Z,30.10
2017-08-31T15:25:20.683Z,30.10
2017-08-31T15:27:48.435Z,30.10
2017-08-31T15:30:16.158Z,29.90
2017-08-31T15:32:43.940Z,29.70
2017-08-31T15:35:11.668Z,29.30
2017-08-31T15:37:39.397Z,29.20
2017-08-31T15:40:07.164Z,29.00
2017-08-31T15:42:34.899Z,28.90
2017-08-31T15:45:02.684Z,28.90
2017-08-31T15:47:30.410Z,28.80
2017-08-31T15:49:58.135Z,28.60
2017-08-31T15:52:25.896Z,28.50
2017-08-31T15:54:53.633Z,28.40
2017-08-31T15:57:21.419Z,28.30
2017-08-31T15:59:49.144Z,28.30
2017-08-31T16:02:16.868Z,28.30
2017-08-31T16:04:44.640Z,28.30
2017-08-31T16:07:12.383Z,28.30
2017-08-31T16:09:40.168Z,28.30
2017-08-31T16:12:07.897Z,28.30
2017-08-31T16:14:35.632Z,28.30
2017-08-31T16:17:03.412Z,28.20
2017-08-31T16:19:31.134Z,28.20
2017-08-31T16:21:58.937Z,28.10
2017-08-31T16:24:26.660Z,28.00
2017-08-31T16:26:54.392Z,27.90
2017-08-31T16:29:22.164Z,27.80
2017-08-31T16:31:49.886Z,27.80
2017-08-31T16:34:17.668Z,27.70
2017-08-31T16:36:45.388Z,27.60
2017-08-31T16:39:13.115Z,27.70
2017-08-31T16:41:40.879Z,27.60
2017-08-31T16:44:08.607Z,27.60
2017-08-31T16:46:36.887Z,27.50
2017-08-31T16:49:04.615Z,27.50
2017-08-31T16:51:32.387Z,27.40
2017-08-31T16:54:00.157Z,27.30
2017-08-31T16:56:27.895Z,27.30
2017-08-31T16:58:55.675Z,27.30
2017-08-31T17:01:23.411Z,27.30
2017-08-31T17:03:51.135Z,27.20
2017-08-31T17:06:18.899Z,27.20
2017-08-31T17:08:46.622Z,27.10
2017-08-31T17:11:14.502Z,27.00
2017-08-31T17:13:42.251Z,27.00
2017-08-31T17:16:09.984Z,26.90
2017-08-31T17:18:37.758Z,26.80
2017-08-31T17:21:05.480Z,26.70
2017-08-31T17:23:33.295Z,26.60
2017-08-31T17:26:01.024Z,26.60
2017-08-31T17:28:28.799Z,26.40
2017-08-31T17:30:56.556Z,26.40
2017-08-31T17:33:24.283Z,26.20
2017-08-31T17:35:53.388Z,26.20
2017-08-31T17:38:21.270Z,26.10
2017-08-31T17:40:49.007Z,26.00
2017-08-31T17:43:16.765Z,26.00
2017-08-31T17:45:44.492Z,25.90
2017-08-31T17:48:12.283Z,25.90
2017-08-31T17:50:40.015Z,25.80
2017-08-31T17:53:07.744Z,25.80
2017-08-31T17:55:35.514Z,25.70
2017-08-31T17:58:03.239Z,25.60
2017-08-31T18:00:31.022Z,25.60
2017-08-31T18:02:58.776Z,25.50
2017-08-31T18:05:26.523Z,25.40
2017-08-31T18:07:54.282Z,25.30
2017-08-31T18:10:22.008Z,25.20
2017-08-31T18:12:49.808Z,25.10
2017-08-31T18:15:17.536Z,25.00
2017-08-31T18:17:45.263Z,24.90
2017-08-31T18:20:13.032Z,24.80
2017-08-31T18:22:40.759Z,24.70
2017-08-31T18:25:08.547Z,24.60
2017-08-31T18:27:36.271Z,24.60
2017-08-31T18:30:04.019Z,24.50
2017-08-31T18:32:31.782Z,24.50
2017-08-31T18:34:59.517Z,24.40
2017-08-31T18:37:27.301Z,24.40
2017-08-31T18:39:55.027Z,24.30
2017-08-31T18:42:22.753Z,24.30
2017-08-31T18:44:50.511Z,24.20
2017-08-31T18:47:18.248Z,24.20
2017-08-31T18:49:46.095Z,24.20
2017-08-31T18:52:13.832Z,24.10
2017-08-31T18:54:41.564Z,24.10
2017-08-31T18:57:09.337Z,24.00
2017-08-31T18:59:37.075Z,24.00
2017-08-31T19:02:04.871Z,23.90
2017-08-31T19:04:32.599Z,23.80
2017-08-31T19:07:00.328Z,23.80
2017-08-31T19:09:28.103Z,23.80
2017-08-31T19:11:55.832Z,23.70
2017-08-31T19:14:23.615Z,23.70
2017-08-31T19:16:51.343Z,23.70
2017-08-31T19:19:19.068Z,23.60
2017-08-31T19:21:46.827Z,23.60
2017-08-31T19:24:14.560Z,23.60
2017-08-31T19:26:43.020Z,23.60
2017-08-31T19:29:10.755Z,23.50
2017-08-31T19:31:38.485Z,23.50
2017-08-31T19:34:06.236Z,23.60
2017-08-31T19:36:33.967Z,23.50
2017-08-31T19:39:01.747Z,23.60
2017-08-31T19:41:29.553Z,23.50
2017-08-31T19:43:57.318Z,23.40
2017-08-31T19:46:25.173Z,23.30
2017-08-31T19:48:52.903Z,23.40
2017-08-31T19:51:20.736Z,23.30
2017-08-31T19:53:48.463Z,23.20
2017-08-31T19:56:16.191Z,23.20
2017-08-31T19:58:43.953Z,23.10
2017-08-31T20:01:11.679Z,23.10
2017-08-31T20:03:39.630Z,23.00
2017-08-31T20:06:07.361Z,23.00
2017-08-31T20:08:35.092Z,22.90
2017-08-31T20:11:02.853Z,22.90
2017-08-31T20:13:30.725Z,22.90
2017-08-31T20:15:58.720Z,22.90
2017-08-31T20:18:26.472Z,22.80
2017-08-31T20:20:54.214Z,22.80
2017-08-31T20:23:21.984Z,22.70
2017-08-31T20:25:49.718Z,22.60
2017-08-31T20:28:17.498Z,22.60
2017-08-31T20:30:45.243Z,22.50
2017-08-31T20:33:13.028Z,22.50
2017-08-31T20:35:40.792Z,22.30
2017-08-31T20:38:08.519Z,22.30
2017-08-31T20:40:36.357Z,22.20
2017-08-31T20:43:04.124Z,22.10
2017-08-31T20:45:31.904Z,22.10
2017-08-31T20:47:59.724Z,22.00
2017-08-31T20:50:27.476Z,21.90
2017-08-31T20:52:55.259Z,21.90
2017-08-31T20:55:23.000Z,21.80
2017-08-31T20:57:50.735Z,21.80
2017-08-31T21:00:18.498Z,21.80
2017-08-31T21:02:46.228Z,21.80
2017-08-31T21:05:14.017Z,21.80
2017-08-31T21:07:41.740Z,21.80
2017-08-31T21:10:09.472Z,21.80
2017-08-31T21:12:37.289Z,21.80
2017-08-31T21:15:05.015Z,21.70
2017-08-31T21:17:32.802Z,21.70
2017-08-31T21:20:00.540Z,21.70
2017-08-31T21:22:28.268Z,21.70
2017-08-31T21:24:56.024Z,21.70
2017-08-31T21:27:23.751Z,21.60
2017-08-31T21:29:51.536Z,21.50
2017-08-31T21:32:19.261Z,21.40
2017-08-31T21:34:46.999Z,21.40
2017-08-31T21:37:14.760Z,21.30
2017-08-31T21:39:42.483Z,21.20
2017-08-31T21:42:10.273Z,21.20
2017-08-31T21:44:38.048Z,21.10
2017-08-31T21:47:05.774Z,21.10
2017-08-31T21:49:33.532Z,21.10
2017-08-31T21:52:01.263Z,21.00
2017-08-31T21:54:29.082Z,20.90
2017-08-31T21:56:56.809Z,20.80
2017-08-31T21:59:24.536Z,20.80
2017-08-31T22:01:52.292Z,20.70
2017-08-31T22:04:20.020Z,20.70
2017-08-31T22:06:47.799Z,20.70
2017-08-31T22:09:15.528Z,20.70
2017-08-31T22:11:43.247Z,20.60
2017-08-31T22:14:11.005Z,20.60
2017-08-31T22:16:38.788Z,20.50
2017-08-31T22:19:06.571Z,20.50
2017-08-31T22:21:34.295Z,20.50
2017-08-31T22:24:02.031Z,20.40
2017-08-31T22:26:29.787Z,20.40
2017-08-31T22:28:57.521Z,20.40
2017-08-31T22:31:25.317Z,20.40
2017-08-31T22:33:53.043Z,20.40
2017-08-31T22:36:20.768Z,20.30
2017-08-31T22:38:48.540Z,20.30
2017-08-31T22:41:16.269Z,20.30
2017-08-31T22:43:44.055Z,20.30
2017-08-31T22:46:11.785Z,20.20
2017-08-31T22:48:39.508Z,20.30
2017-08-31T22:51:07.261Z,20.30
2017-08-31T22:53:34.984Z,20.20
2017-08-31T22:56:02.776Z,20.20
2017-08-31T22:58:42.290Z,20.10
2017-08-31T23:01:10.076Z,20.00
2017-08-31T23:03:37.856Z,20.00
2017-08-31T23:06:05.587Z,19.90
2017-08-31T23:08:33.352Z,19.90
2017-08-31T23:11:01.087Z,19.80
2017-08-31T23:13:28.893Z,19.80
2017-08-31T23:15:56.621Z,19.80
2017-08-31T23:18:24.351Z,19.70
2017-08-31T23:20:52.104Z,19.70
2017-08-31T23:23:19.831Z,19.80
2017-08-31T23:25:47.661Z,19.70
2017-08-31T23:28:15.384Z,19.80
2017-08-31T23:30:43.108Z,19.80
2017-08-31T23:33:10.880Z,19.90
2017-08-31T23:35:38.609Z,19.90
2017-08-31T23:38:06.398Z,19.80
2017-08-31T23:40:34.123Z,19.80
2017-08-31T23:43:01.856Z,19.70
2017-08-31T23:45:29.607Z,19.60
2017-08-31T23:47:57.331Z,19.50
2017-08-31T23:50:25.123Z,19.50
2017-08-31T23:52:52.843Z,19.50
2017-08-31T23:55:20.578Z,19.50
2017-08-31T23:57:48.331Z,19.40
